sensor_id;sensor_type;location;lat;lon;timestamp;P1;durP1;ratioP1;P2;durP2;ratioP2
3347;SDS011;1687;49.540;8.574;2023-08-31T00:00:44;7.40;;;4.23;;
3347;SDS011;1687;49.540;8.574;2023-08-31T00:03:10;6.13;;;3.97;;
3347;SDS011;1687;49.540;8.574;2023-08-31T00:05:37;10.33;;;3.23;;
3347;SDS011;1687;49.540;8.574;2023-08-31T00:08:07;7.50;;;3.67;;
3347;SDS011;1687;49.540;8.574;2023-08-31T00:10:34;5.00;;;3.00;;
3347;SDS011;1687;49.540;8.574;2023-08-31T00:13:00;8.90;;;4.13;;
3347;SDS011;1687;49.540;8.574;2023-08-31T00:15:31;7.70;;;3.90;;
3347;SDS011;1687;49.540;8.574;2023-08-31T00:18:01;5.73;;;3.47;;
3347;SDS011;1687;49.540;8.574;2023-08-31T00:20:28;5.80;;;3.20;;
3347;SDS011;1687;49.540;8.574;2023-08-31T00:22:55;7.90;;;4.13;;
3347;SDS011;1687;49.540;8.574;2023-08-31T00:25:21;6.80;;;3.90;;
3347;SDS011;1687;49.540;8.574;2023-08-31T00:27:47;6.73;;;3.70;;
3347;SDS011;1687;49.540;8.574;2023-08-31T00:30:13;5.97;;;3.57;;
3347;SDS011;1687;49.540;8.574;2023-08-31T00:32:40;6.33;;;3.40;;
3347;SDS011;1687;49.540;8.574;2023-08-31T00:35:07;6.30;;;3.40;;
3347;SDS011;1687;49.540;8.574;2023-08-31T00:37:34;9.30;;;4.20;;
3347;SDS011;1687;49.540;8.574;2023-08-31T00:40:00;12.40;;;4.00;;
3347;SDS011;1687;49.540;8.574;2023-08-31T00:42:26;7.60;;;3.17;;
3347;SDS011;1687;49.540;8.574;2023-08-31T00:44:54;5.80;;;3.17;;
3347;SDS011;1687;49.540;8.574;2023-08-31T00:47:20;7.40;;;3.60;;
3347;SDS011;1687;49.540;8.574;2023-08-31T00:49:46;7.37;;;3.63;;
3347;SDS011;1687;49.540;8.574;2023-08-31T00:52:13;7.40;;;3.63;;
3347;SDS011;1687;49.540;8.574;2023-08-31T00:54:38;8.13;;;3.10;;
3347;SDS011;1687;49.540;8.574;2023-08-31T00:57:07;8.10;;;3.50;;
3347;SDS011;1687;49.540;8.574;2023-08-31T00:59:33;7.33;;;4.27;;
3347;SDS011;1687;49.540;8.574;2023-08-31T01:12:50;7.50;;;3.63;;
3347;SDS011;1687;49.540;8.574;2023-08-31T01:15:21;8.20;;;3.70;;
3347;SDS011;1687;49.540;8.574;2023-08-31T01:17:47;11.37;;;4.00;;
3347;SDS011;1687;49.540;8.574;2023-08-31T01:23:08;7.70;;;4.07;;
3347;SDS011;1687;49.540;8.574;2023-08-31T01:25:38;7.73;;;4.33;;
3347;SDS011;1687;49.540;8.574;2023-08-31T01:28:07;8.37;;;4.47;;
3347;SDS011;1687;49.540;8.574;2023-08-31T01:30:33;9.00;;;4.63;;
3347;SDS011;1687;49.540;8.574;2023-08-31T01:32:59;9.30;;;4.50;;
3347;SDS011;1687;49.540;8.574;2023-08-31T01:35:25;12.27;;;4.60;;
3347;SDS011;1687;49.540;8.574;2023-08-31T01:37:53;8.40;;;4.33;;
3347;SDS011;1687;49.540;8.574;2023-08-31T01:40:47;14.83;;;4.37;;
3347;SDS011;1687;49.540;8.574;2023-08-31T01:43:26;8.77;;;4.73;;
3347;SDS011;1687;49.540;8.574;2023-08-31T01:45:53;8.50;;;4.80;;
3347;SDS011;1687;49.540;8.574;2023-08-31T01:48:19;8.63;;;4.70;;
3347;SDS011;1687;49.540;8.574;2023-08-31T01:50:45;10.00;;;4.90;;
3347;SDS011;1687;49.540;8.574;2023-08-31T01:53:11;11.83;;;4.70;;
3347;SDS011;1687;49.540;8.574;2023-08-31T01:55:37;9.37;;;4.73;;
3347;SDS011;1687;49.540;8.574;2023-08-31T01:58:03;8.93;;;4.83;;
3347;SDS011;1687;49.540;8.574;2023-08-31T02:00:29;18.43;;;5.57;;
3347;SDS011;1687;49.540;8.574;2023-08-31T02:02:59;13.57;;;5.80;;
3347;SDS011;1687;49.540;8.574;2023-08-31T02:05:25;11.90;;;5.50;;
3347;SDS011;1687;49.540;8.574;2023-08-31T02:07:51;15.70;;;5.57;;
3347;SDS011;1687;49.540;8.574;2023-08-31T02:10:16;7.60;;;4.40;;
3347;SDS011;1687;49.540;8.574;2023-08-31T02:12:42;9.97;;;5.83;;
3347;SDS011;1687;49.540;8.574;2023-08-31T02:15:08;9.17;;;5.20;;
3347;SDS011;1687;49.540;8.574;2023-08-31T02:17:34;9.33;;;5.20;;
3347;SDS011;1687;49.540;8.574;2023-08-31T02:20:00;12.93;;;6.00;;
3347;SDS011;1687;49.540;8.574;2023-08-31T02:22:30;10.73;;;5.43;;
3347;SDS011;1687;49.540;8.574;2023-08-31T02:24:59;10.90;;;5.80;;
3347;SDS011;1687;49.540;8.574;2023-08-31T02:27:26;9.83;;;4.90;;
3347;SDS011;1687;49.540;8.574;2023-08-31T02:29:52;16.50;;;6.20;;
3347;SDS011;1687;49.540;8.574;2023-08-31T02:32:18;12.07;;;6.07;;
3347;SDS011;1687;49.540;8.574;2023-08-31T02:34:44;11.87;;;5.90;;
3347;SDS011;1687;49.540;8.574;2023-08-31T02:37:10;11.80;;;6.00;;
3347;SDS011;1687;49.540;8.574;2023-08-31T02:39:36;12.57;;;6.30;;
3347;SDS011;1687;49.540;8.574;2023-08-31T02:42:01;11.67;;;6.40;;
3347;SDS011;1687;49.540;8.574;2023-08-31T02:44:27;11.23;;;6.07;;
3347;SDS011;1687;49.540;8.574;2023-08-31T02:46:53;13.70;;;6.60;;
3347;SDS011;1687;49.540;8.574;2023-08-31T02:49:18;11.30;;;5.43;;
3347;SDS011;1687;49.540;8.574;2023-08-31T02:51:44;10.40;;;5.97;;
3347;SDS011;1687;49.540;8.574;2023-08-31T02:54:10;9.73;;;5.93;;
3347;SDS011;1687;49.540;8.574;2023-08-31T02:56:35;11.63;;;6.00;;
3347;SDS011;1687;49.540;8.574;2023-08-31T02:59:01;9.73;;;6.13;;
3347;SDS011;1687;49.540;8.574;2023-08-31T03:01:27;10.80;;;5.43;;
3347;SDS011;1687;49.540;8.574;2023-08-31T03:03:52;9.30;;;5.63;;
3347;SDS011;1687;49.540;8.574;2023-08-31T03:06:18;11.70;;;6.80;;
3347;SDS011;1687;49.540;8.574;2023-08-31T03:08:44;15.60;;;5.93;;
3347;SDS011;1687;49.540;8.574;2023-08-31T03:11:09;10.03;;;5.87;;
3347;SDS011;1687;49.540;8.574;2023-08-31T03:13:35;14.10;;;6.23;;
3347;SDS011;1687;49.540;8.574;2023-08-31T03:16:01;11.70;;;6.00;;
3347;SDS011;1687;49.540;8.574;2023-08-31T03:18:27;12.27;;;6.00;;
3347;SDS011;1687;49.540;8.574;2023-08-31T03:20:54;13.40;;;5.97;;
3347;SDS011;1687;49.540;8.574;2023-08-31T03:23:20;11.37;;;6.17;;
3347;SDS011;1687;49.540;8.574;2023-08-31T03:25:46;19.53;;;7.20;;
3347;SDS011;1687;49.540;8.574;2023-08-31T03:28:12;9.83;;;5.40;;
3347;SDS011;1687;49.540;8.574;2023-08-31T03:30:38;11.77;;;6.50;;
3347;SDS011;1687;49.540;8.574;2023-08-31T03:33:03;11.67;;;6.50;;
3347;SDS011;1687;49.540;8.574;2023-08-31T03:35:31;13.17;;;6.53;;
3347;SDS011;1687;49.540;8.574;2023-08-31T03:37:57;11.93;;;6.63;;
3347;SDS011;1687;49.540;8.574;2023-08-31T03:40:23;13.67;;;7.07;;
3347;SDS011;1687;49.540;8.574;2023-08-31T03:42:49;15.40;;;6.67;;
3347;SDS011;1687;49.540;8.574;2023-08-31T03:45:15;13.40;;;6.27;;
3347;SDS011;1687;49.540;8.574;2023-08-31T03:47:40;9.90;;;5.93;;
3347;SDS011;1687;49.540;8.574;2023-08-31T03:50:06;10.97;;;6.10;;
3347;SDS011;1687;49.540;8.574;2023-08-31T03:52:33;12.67;;;7.17;;
3347;SDS011;1687;49.540;8.574;2023-08-31T03:54:59;15.00;;;5.77;;
3347;SDS011;1687;49.540;8.574;2023-08-31T03:57:24;10.60;;;6.70;;
3347;SDS011;1687;49.540;8.574;2023-08-31T03:59:50;11.60;;;6.27;;
3347;SDS011;1687;49.540;8.574;2023-08-31T04:02:16;13.23;;;6.80;;
3347;SDS011;1687;49.540;8.574;2023-08-31T04:04:41;18.30;;;7.50;;
3347;SDS011;1687;49.540;8.574;2023-08-31T04:07:07;12.57;;;6.77;;
3347;SDS011;1687;49.540;8.574;2023-08-31T04:09:33;13.20;;;7.73;;
3347;SDS011;1687;49.540;8.574;2023-08-31T04:11:58;11.03;;;6.70;;
3347;SDS011;1687;49.540;8.574;2023-08-31T04:14:27;12.10;;;6.33;;
3347;SDS011;1687;49.540;8.574;2023-08-31T04:16:54;11.07;;;6.93;;
3347;SDS011;1687;49.540;8.574;2023-08-31T04:19:20;12.13;;;6.90;;
3347;SDS011;1687;49.540;8.574;2023-08-31T04:21:46;12.77;;;6.87;;
3347;SDS011;1687;49.540;8.574;2023-08-31T04:24:11;10.37;;;6.03;;
3347;SDS011;1687;49.540;8.574;2023-08-31T04:26:37;12.67;;;6.13;;
3347;SDS011;1687;49.540;8.574;2023-08-31T04:29:03;16.63;;;7.27;;
3347;SDS011;1687;49.540;8.574;2023-08-31T04:31:30;15.30;;;7.30;;
3347;SDS011;1687;49.540;8.574;2023-08-31T04:33:59;13.80;;;6.40;;
3347;SDS011;1687;49.540;8.574;2023-08-31T04:36:25;12.60;;;6.67;;
3347;SDS011;1687;49.540;8.574;2023-08-31T04:38:50;34.47;;;6.73;;
3347;SDS011;1687;49.540;8.574;2023-08-31T04:41:16;15.33;;;6.37;;
3347;SDS011;1687;49.540;8.574;2023-08-31T04:43:42;10.80;;;6.20;;
3347;SDS011;1687;49.540;8.574;2023-08-31T04:46:08;15.17;;;6.50;;
3347;SDS011;1687;49.540;8.574;2023-08-31T04:48:34;12.57;;;6.70;;
3347;SDS011;1687;49.540;8.574;2023-08-31T04:51:01;13.23;;;6.07;;
3347;SDS011;1687;49.540;8.574;2023-08-31T04:53:29;14.23;;;6.93;;
3347;SDS011;1687;49.540;8.574;2023-08-31T04:55:55;9.73;;;5.53;;
3347;SDS011;1687;49.540;8.574;2023-08-31T04:58:21;15.77;;;6.33;;
3347;SDS011;1687;49.540;8.574;2023-08-31T05:00:46;13.07;;;6.60;;
3347;SDS011;1687;49.540;8.574;2023-08-31T05:03:12;9.77;;;6.10;;
3347;SDS011;1687;49.540;8.574;2023-08-31T05:05:39;11.03;;;6.00;;
3347;SDS011;1687;49.540;8.574;2023-08-31T05:08:07;11.00;;;5.73;;
3347;SDS011;1687;49.540;8.574;2023-08-31T05:10:33;12.03;;;6.10;;
3347;SDS011;1687;49.540;8.574;2023-08-31T05:12:59;13.07;;;6.63;;
3347;SDS011;1687;49.540;8.574;2023-08-31T05:15:25;13.80;;;6.17;;
3347;SDS011;1687;49.540;8.574;2023-08-31T05:17:52;17.33;;;5.90;;
3347;SDS011;1687;49.540;8.574;2023-08-31T05:20:18;10.93;;;5.80;;
3347;SDS011;1687;49.540;8.574;2023-08-31T05:22:46;10.90;;;5.97;;
3347;SDS011;1687;49.540;8.574;2023-08-31T05:25:12;11.40;;;5.63;;
3347;SDS011;1687;49.540;8.574;2023-08-31T05:27:37;14.80;;;5.57;;
3347;SDS011;1687;49.540;8.574;2023-08-31T05:30:03;8.00;;;5.07;;
3347;SDS011;1687;49.540;8.574;2023-08-31T05:32:30;7.70;;;4.70;;
3347;SDS011;1687;49.540;8.574;2023-08-31T05:34:55;15.33;;;6.00;;
3347;SDS011;1687;49.540;8.574;2023-08-31T05:37:21;16.17;;;6.23;;
3347;SDS011;1687;49.540;8.574;2023-08-31T05:39:47;11.20;;;5.57;;
3347;SDS011;1687;49.540;8.574;2023-08-31T05:42:14;10.20;;;5.47;;
3347;SDS011;1687;49.540;8.574;2023-08-31T05:44:40;7.53;;;4.70;;
3347;SDS011;1687;49.540;8.574;2023-08-31T05:47:06;13.67;;;5.20;;
3347;SDS011;1687;49.540;8.574;2023-08-31T05:49:31;9.57;;;5.53;;
3347;SDS011;1687;49.540;8.574;2023-08-31T05:51:58;11.10;;;5.17;;
3347;SDS011;1687;49.540;8.574;2023-08-31T05:54:23;13.33;;;6.63;;
3347;SDS011;1687;49.540;8.574;2023-08-31T05:56:49;11.23;;;5.00;;
3347;SDS011;1687;49.540;8.574;2023-08-31T05:59:15;11.90;;;5.47;;
3347;SDS011;1687;49.540;8.574;2023-08-31T06:01:40;8.87;;;5.00;;
3347;SDS011;1687;49.540;8.574;2023-08-31T06:04:06;14.87;;;5.17;;
3347;SDS011;1687;49.540;8.574;2023-08-31T06:06:32;12.00;;;5.87;;
3347;SDS011;1687;49.540;8.574;2023-08-31T06:08:58;9.27;;;4.30;;
3347;SDS011;1687;49.540;8.574;2023-08-31T06:11:24;21.83;;;5.30;;
3347;SDS011;1687;49.540;8.574;2023-08-31T06:13:49;7.90;;;4.70;;
3347;SDS011;1687;49.540;8.574;2023-08-31T06:16:15;7.90;;;4.73;;
3347;SDS011;1687;49.540;8.574;2023-08-31T06:18:41;11.53;;;4.67;;
3347;SDS011;1687;49.540;8.574;2023-08-31T06:21:06;10.63;;;5.53;;
3347;SDS011;1687;49.540;8.574;2023-08-31T06:23:32;9.43;;;4.90;;
3347;SDS011;1687;49.540;8.574;2023-08-31T06:25:57;10.80;;;5.20;;
3347;SDS011;1687;49.540;8.574;2023-08-31T06:28:23;8.10;;;4.40;;
3347;SDS011;1687;49.540;8.574;2023-08-31T06:30:49;13.63;;;5.43;;
3347;SDS011;1687;49.540;8.574;2023-08-31T06:33:15;13.33;;;5.40;;
3347;SDS011;1687;49.540;8.574;2023-08-31T06:35:42;12.10;;;4.77;;
3347;SDS011;1687;49.540;8.574;2023-08-31T06:38:11;15.63;;;4.70;;
3347;SDS011;1687;49.540;8.574;2023-08-31T06:40:37;10.93;;;4.47;;
3347;SDS011;1687;49.540;8.574;2023-08-31T06:43:03;9.40;;;4.67;;
3347;SDS011;1687;49.540;8.574;2023-08-31T06:45:28;8.60;;;4.83;;
3347;SDS011;1687;49.540;8.574;2023-08-31T06:47:54;8.10;;;4.50;;
3347;SDS011;1687;49.540;8.574;2023-08-31T06:50:20;10.20;;;5.20;;
3347;SDS011;1687;49.540;8.574;2023-08-31T06:52:46;11.77;;;5.20;;
3347;SDS011;1687;49.540;8.574;2023-08-31T06:55:11;9.20;;;6.17;;
3347;SDS011;1687;49.540;8.574;2023-08-31T06:57:37;10.43;;;5.17;;
3347;SDS011;1687;49.540;8.574;2023-08-31T07:00:03;10.30;;;4.70;;
3347;SDS011;1687;49.540;8.574;2023-08-31T07:02:31;9.90;;;5.50;;
3347;SDS011;1687;49.540;8.574;2023-08-31T07:04:57;8.60;;;4.50;;
3347;SDS011;1687;49.540;8.574;2023-08-31T07:07:22;10.17;;;4.93;;
3347;SDS011;1687;49.540;8.574;2023-08-31T07:09:49;14.20;;;5.23;;
3347;SDS011;1687;49.540;8.574;2023-08-31T07:12:14;9.53;;;4.57;;
3347;SDS011;1687;49.540;8.574;2023-08-31T07:14:40;15.90;;;5.20;;
3347;SDS011;1687;49.540;8.574;2023-08-31T07:17:05;8.43;;;4.17;;
3347;SDS011;1687;49.540;8.574;2023-08-31T07:19:31;11.10;;;4.00;;
3347;SDS011;1687;49.540;8.574;2023-08-31T07:22:00;11.30;;;4.97;;
3347;SDS011;1687;49.540;8.574;2023-08-31T07:24:26;9.00;;;5.10;;
3347;SDS011;1687;49.540;8.574;2023-08-31T07:26:51;11.93;;;5.07;;
3347;SDS011;1687;49.540;8.574;2023-08-31T07:29:17;11.93;;;5.47;;
3347;SDS011;1687;49.540;8.574;2023-08-31T07:31:43;8.03;;;4.97;;
3347;SDS011;1687;49.540;8.574;2023-08-31T07:34:08;10.33;;;4.67;;
3347;SDS011;1687;49.540;8.574;2023-08-31T07:36:34;11.20;;;5.60;;
3347;SDS011;1687;49.540;8.574;2023-08-31T07:39:00;14.70;;;4.00;;
3347;SDS011;1687;49.540;8.574;2023-08-31T07:41:25;8.20;;;4.50;;
3347;SDS011;1687;49.540;8.574;2023-08-31T07:43:51;9.97;;;4.17;;
3347;SDS011;1687;49.540;8.574;2023-08-31T07:46:17;20.83;;;3.87;;
3347;SDS011;1687;49.540;8.574;2023-08-31T07:48:43;6.20;;;3.67;;
3347;SDS011;1687;49.540;8.574;2023-08-31T07:51:08;6.67;;;3.60;;
3347;SDS011;1687;49.540;8.574;2023-08-31T07:53:34;10.67;;;3.80;;
3347;SDS011;1687;49.540;8.574;2023-08-31T07:56:00;11.83;;;3.17;;
3347;SDS011;1687;49.540;8.574;2023-08-31T07:58:26;9.33;;;3.53;;
3347;SDS011;1687;49.540;8.574;2023-08-31T08:00:52;7.80;;;3.80;;
3347;SDS011;1687;49.540;8.574;2023-08-31T08:03:19;14.97;;;4.10;;
3347;SDS011;1687;49.540;8.574;2023-08-31T08:05:45;6.70;;;3.37;;
3347;SDS011;1687;49.540;8.574;2023-08-31T08:08:11;19.90;;;4.23;;
3347;SDS011;1687;49.540;8.574;2023-08-31T08:10:37;8.40;;;3.10;;
3347;SDS011;1687;49.540;8.574;2023-08-31T08:13:02;13.00;;;3.43;;
3347;SDS011;1687;49.540;8.574;2023-08-31T08:15:28;4.10;;;2.70;;
3347;SDS011;1687;49.540;8.574;2023-08-31T08:17:55;7.63;;;3.63;;
3347;SDS011;1687;49.540;8.574;2023-08-31T08:20:22;8.40;;;3.87;;
3347;SDS011;1687;49.540;8.574;2023-08-31T08:22:48;16.67;;;4.10;;
3347;SDS011;1687;49.540;8.574;2023-08-31T08:25:17;6.30;;;2.77;;
3347;SDS011;1687;49.540;8.574;2023-08-31T08:27:44;14.93;;;3.93;;
3347;SDS011;1687;49.540;8.574;2023-08-31T08:30:11;6.00;;;3.40;;
3347;SDS011;1687;49.540;8.574;2023-08-31T08:32:37;5.47;;;3.30;;
3347;SDS011;1687;49.540;8.574;2023-08-31T08:35:03;7.90;;;3.27;;
3347;SDS011;1687;49.540;8.574;2023-08-31T08:37:29;5.13;;;3.00;;
3347;SDS011;1687;49.540;8.574;2023-08-31T08:39:57;9.33;;;4.40;;
3347;SDS011;1687;49.540;8.574;2023-08-31T08:42:24;7.17;;;3.20;;
3347;SDS011;1687;49.540;8.574;2023-08-31T08:44:50;7.90;;;3.83;;
3347;SDS011;1687;49.540;8.574;2023-08-31T08:47:17;3.57;;;2.10;;
3347;SDS011;1687;49.540;8.574;2023-08-31T08:49:43;4.40;;;2.20;;
3347;SDS011;1687;49.540;8.574;2023-08-31T08:52:11;7.50;;;2.63;;
3347;SDS011;1687;49.540;8.574;2023-08-31T08:54:38;7.20;;;3.10;;
3347;SDS011;1687;49.540;8.574;2023-08-31T08:57:05;9.93;;;2.40;;
3347;SDS011;1687;49.540;8.574;2023-08-31T08:59:31;14.00;;;2.90;;
3347;SDS011;1687;49.540;8.574;2023-08-31T09:01:57;4.70;;;2.40;;
3347;SDS011;1687;49.540;8.574;2023-08-31T09:04:23;9.60;;;2.67;;
3347;SDS011;1687;49.540;8.574;2023-08-31T09:06:50;14.03;;;2.13;;
3347;SDS011;1687;49.540;8.574;2023-08-31T09:09:16;4.13;;;1.77;;
3347;SDS011;1687;49.540;8.574;2023-08-31T09:11:42;6.73;;;3.03;;
3347;SDS011;1687;49.540;8.574;2023-08-31T09:14:14;6.43;;;2.30;;
3347;SDS011;1687;49.540;8.574;2023-08-31T09:16:45;4.77;;;2.10;;
3347;SDS011;1687;49.540;8.574;2023-08-31T09:19:22;8.80;;;2.00;;
3347;SDS011;1687;49.540;8.574;2023-08-31T09:21:50;7.50;;;2.60;;
3347;SDS011;1687;49.540;8.574;2023-08-31T09:24:17;7.30;;;2.40;;
3347;SDS011;1687;49.540;8.574;2023-08-31T09:26:53;6.30;;;2.10;;
3347;SDS011;1687;49.540;8.574;2023-08-31T09:29:21;10.23;;;2.07;;
3347;SDS011;1687;49.540;8.574;2023-08-31T09:31:47;4.67;;;2.53;;
3347;SDS011;1687;49.540;8.574;2023-08-31T09:34:14;4.93;;;2.20;;
3347;SDS011;1687;49.540;8.574;2023-08-31T09:36:40;6.50;;;2.30;;
3347;SDS011;1687;49.540;8.574;2023-08-31T09:39:07;4.63;;;2.13;;
3347;SDS011;1687;49.540;8.574;2023-08-31T09:41:34;5.43;;;2.03;;
3347;SDS011;1687;49.540;8.574;2023-08-31T09:44:16;9.00;;;2.90;;
3347;SDS011;1687;49.540;8.574;2023-08-31T09:46:44;3.93;;;2.53;;
3347;SDS011;1687;49.540;8.574;2023-08-31T09:49:11;9.90;;;2.87;;
3347;SDS011;1687;49.540;8.574;2023-08-31T09:51:41;5.80;;;2.70;;
3347;SDS011;1687;49.540;8.574;2023-08-31T09:54:12;4.53;;;2.37;;
3347;SDS011;1687;49.540;8.574;2023-08-31T09:56:42;9.90;;;2.03;;
3347;SDS011;1687;49.540;8.574;2023-08-31T09:59:11;8.30;;;3.90;;
3347;SDS011;1687;49.540;8.574;2023-08-31T10:01:38;8.40;;;3.27;;
3347;SDS011;1687;49.540;8.574;2023-08-31T10:04:11;6.30;;;2.23;;
3347;SDS011;1687;49.540;8.574;2023-08-31T10:06:40;5.13;;;2.43;;
3347;SDS011;1687;49.540;8.574;2023-08-31T10:09:07;6.50;;;2.33;;
3347;SDS011;1687;49.540;8.574;2023-08-31T10:11:37;8.27;;;2.83;;
3347;SDS011;1687;49.540;8.574;2023-08-31T10:14:04;5.17;;;2.40;;
3347;SDS011;1687;49.540;8.574;2023-08-31T10:16:30;4.40;;;1.70;;
3347;SDS011;1687;49.540;8.574;2023-08-31T10:18:57;5.43;;;2.00;;
3347;SDS011;1687;49.540;8.574;2023-08-31T10:21:23;3.47;;;1.80;;
3347;SDS011;1687;49.540;8.574;2023-08-31T10:23:50;7.63;;;1.80;;
3347;SDS011;1687;49.540;8.574;2023-08-31T10:26:23;5.00;;;1.90;;
3347;SDS011;1687;49.540;8.574;2023-08-31T10:28:51;7.63;;;1.63;;
3347;SDS011;1687;49.540;8.574;2023-08-31T10:31:17;3.97;;;2.00;;
3347;SDS011;1687;49.540;8.574;2023-08-31T10:36:22;5.13;;;2.23;;
3347;SDS011;1687;49.540;8.574;2023-08-31T10:39:00;4.20;;;2.07;;
3347;SDS011;1687;49.540;8.574;2023-08-31T10:41:34;6.33;;;2.17;;
3347;SDS011;1687;49.540;8.574;2023-08-31T10:44:00;6.70;;;2.03;;
3347;SDS011;1687;49.540;8.574;2023-08-31T10:46:30;3.40;;;1.50;;
3347;SDS011;1687;49.540;8.574;2023-08-31T10:49:01;3.97;;;2.07;;
3347;SDS011;1687;49.540;8.574;2023-08-31T10:51:45;2.87;;;1.37;;
3347;SDS011;1687;49.540;8.574;2023-08-31T10:54:21;3.43;;;1.90;;
3347;SDS011;1687;49.540;8.574;2023-08-31T10:59:41;10.73;;;1.97;;
3347;SDS011;1687;49.540;8.574;2023-08-31T11:02:41;5.53;;;2.43;;
3347;SDS011;1687;49.540;8.574;2023-08-31T11:05:18;7.17;;;1.87;;
3347;SDS011;1687;49.540;8.574;2023-08-31T11:07:44;2.77;;;1.30;;
3347;SDS011;1687;49.540;8.574;2023-08-31T11:10:21;3.80;;;1.90;;
3347;SDS011;1687;49.540;8.574;2023-08-31T11:12:49;2.90;;;1.63;;
3347;SDS011;1687;49.540;8.574;2023-08-31T11:15:20;9.50;;;1.50;;
3347;SDS011;1687;49.540;8.574;2023-08-31T11:17:50;4.80;;;1.60;;
3347;SDS011;1687;49.540;8.574;2023-08-31T11:20:18;3.60;;;1.87;;
3347;SDS011;1687;49.540;8.574;2023-08-31T11:22:46;5.97;;;2.00;;
3347;SDS011;1687;49.540;8.574;2023-08-31T11:25:20;3.80;;;1.60;;
3347;SDS011;1687;49.540;8.574;2023-08-31T11:27:58;4.90;;;1.90;;
3347;SDS011;1687;49.540;8.574;2023-08-31T11:30:30;7.33;;;2.23;;
3347;SDS011;1687;49.540;8.574;2023-08-31T11:33:00;6.63;;;1.93;;
3347;SDS011;1687;49.540;8.574;2023-08-31T11:35:31;7.60;;;2.00;;
3347;SDS011;1687;49.540;8.574;2023-08-31T11:38:02;4.53;;;2.00;;
3347;SDS011;1687;49.540;8.574;2023-08-31T11:40:29;3.97;;;1.57;;
3347;SDS011;1687;49.540;8.574;2023-08-31T11:42:55;2.67;;;1.53;;
3347;SDS011;1687;49.540;8.574;2023-08-31T11:45:22;8.80;;;2.90;;
3347;SDS011;1687;49.540;8.574;2023-08-31T11:47:49;4.23;;;1.70;;
3347;SDS011;1687;49.540;8.574;2023-08-31T11:50:15;6.33;;;1.40;;
3347;SDS011;1687;49.540;8.574;2023-08-31T11:52:42;4.50;;;1.70;;
3347;SDS011;1687;49.540;8.574;2023-08-31T11:55:11;6.73;;;2.27;;
3347;SDS011;1687;49.540;8.574;2023-08-31T11:57:40;4.37;;;2.13;;
3347;SDS011;1687;49.540;8.574;2023-08-31T12:00:06;3.87;;;1.90;;
3347;SDS011;1687;49.540;8.574;2023-08-31T12:02:35;4.13;;;2.00;;
3347;SDS011;1687;49.540;8.574;2023-08-31T12:05:01;4.63;;;1.47;;
3347;SDS011;1687;49.540;8.574;2023-08-31T12:07:27;5.33;;;2.57;;
3347;SDS011;1687;49.540;8.574;2023-08-31T12:09:52;4.13;;;2.00;;
3347;SDS011;1687;49.540;8.574;2023-08-31T12:12:21;4.83;;;1.93;;
3347;SDS011;1687;49.540;8.574;2023-08-31T12:14:52;9.10;;;2.13;;
3347;SDS011;1687;49.540;8.574;2023-08-31T12:17:18;6.00;;;1.70;;
3347;SDS011;1687;49.540;8.574;2023-08-31T12:19:44;5.83;;;2.10;;
3347;SDS011;1687;49.540;8.574;2023-08-31T12:22:11;5.20;;;2.00;;
3347;SDS011;1687;49.540;8.574;2023-08-31T12:24:40;5.40;;;2.93;;
3347;SDS011;1687;49.540;8.574;2023-08-31T12:27:09;4.80;;;1.90;;
3347;SDS011;1687;49.540;8.574;2023-08-31T12:29:36;7.83;;;2.07;;
3347;SDS011;1687;49.540;8.574;2023-08-31T12:32:01;6.03;;;2.80;;
3347;SDS011;1687;49.540;8.574;2023-08-31T12:34:28;3.33;;;1.80;;
3347;SDS011;1687;49.540;8.574;2023-08-31T12:36:56;10.03;;;2.13;;
3347;SDS011;1687;49.540;8.574;2023-08-31T12:39:25;4.00;;;1.80;;
3347;SDS011;1687;49.540;8.574;2023-08-31T12:41:51;4.17;;;1.47;;
3347;SDS011;1687;49.540;8.574;2023-08-31T12:44:17;4.70;;;2.20;;
3347;SDS011;1687;49.540;8.574;2023-08-31T12:46:43;8.13;;;2.67;;
3347;SDS011;1687;49.540;8.574;2023-08-31T12:49:08;3.67;;;2.10;;
3347;SDS011;1687;49.540;8.574;2023-08-31T12:51:34;6.30;;;2.23;;
3347;SDS011;1687;49.540;8.574;2023-08-31T12:54:00;10.73;;;2.17;;
3347;SDS011;1687;49.540;8.574;2023-08-31T12:56:25;5.33;;;2.60;;
3347;SDS011;1687;49.540;8.574;2023-08-31T12:58:51;6.80;;;2.30;;
3347;SDS011;1687;49.540;8.574;2023-08-31T13:01:18;8.73;;;2.50;;
3347;SDS011;1687;49.540;8.574;2023-08-31T13:03:46;6.13;;;2.20;;
3347;SDS011;1687;49.540;8.574;2023-08-31T13:06:12;6.10;;;2.10;;
3347;SDS011;1687;49.540;8.574;2023-08-31T13:08:38;3.10;;;1.77;;
3347;SDS011;1687;49.540;8.574;2023-08-31T13:11:04;6.47;;;2.10;;
3347;SDS011;1687;49.540;8.574;2023-08-31T13:13:31;6.43;;;2.67;;
3347;SDS011;1687;49.540;8.574;2023-08-31T13:15:57;4.13;;;2.53;;
3347;SDS011;1687;49.540;8.574;2023-08-31T13:18:23;4.37;;;2.30;;
3347;SDS011;1687;49.540;8.574;2023-08-31T13:20:52;8.13;;;1.97;;
3347;SDS011;1687;49.540;8.574;2023-08-31T13:23:19;3.00;;;1.70;;
3347;SDS011;1687;49.540;8.574;2023-08-31T13:25:45;7.77;;;2.80;;
3347;SDS011;1687;49.540;8.574;2023-08-31T13:28:11;7.10;;;2.60;;
3347;SDS011;1687;49.540;8.574;2023-08-31T13:30:38;6.57;;;2.43;;
3347;SDS011;1687;49.540;8.574;2023-08-31T13:33:04;5.20;;;2.77;;
3347;SDS011;1687;49.540;8.574;2023-08-31T13:35:31;8.60;;;2.50;;
3347;SDS011;1687;49.540;8.574;2023-08-31T13:37:56;8.97;;;3.30;;
3347;SDS011;1687;49.540;8.574;2023-08-31T13:40:22;7.83;;;1.93;;
3347;SDS011;1687;49.540;8.574;2023-08-31T13:42:54;5.53;;;2.53;;
3347;SDS011;1687;49.540;8.574;2023-08-31T13:45:30;8.27;;;2.60;;
3347;SDS011;1687;49.540;8.574;2023-08-31T13:48:00;6.53;;;1.90;;
3347;SDS011;1687;49.540;8.574;2023-08-31T13:50:26;5.70;;;3.00;;
3347;SDS011;1687;49.540;8.574;2023-08-31T13:52:53;7.43;;;2.77;;
3347;SDS011;1687;49.540;8.574;2023-08-31T13:55:19;7.33;;;2.67;;
3347;SDS011;1687;49.540;8.574;2023-08-31T13:57:44;8.70;;;2.60;;
3347;SDS011;1687;49.540;8.574;2023-08-31T14:00:11;9.23;;;2.50;;
3347;SDS011;1687;49.540;8.574;2023-08-31T14:02:37;8.57;;;2.63;;
3347;SDS011;1687;49.540;8.574;2023-08-31T14:05:04;6.00;;;2.53;;
3347;SDS011;1687;49.540;8.574;2023-08-31T14:07:34;5.20;;;2.27;;
3347;SDS011;1687;49.540;8.574;2023-08-31T14:10:04;4.70;;;2.27;;
3347;SDS011;1687;49.540;8.574;2023-08-31T14:12:31;6.10;;;1.97;;
3347;SDS011;1687;49.540;8.574;2023-08-31T14:14:58;4.87;;;2.13;;
3347;SDS011;1687;49.540;8.574;2023-08-31T14:17:25;10.43;;;2.60;;
3347;SDS011;1687;49.540;8.574;2023-08-31T14:19:51;10.27;;;2.20;;
3347;SDS011;1687;49.540;8.574;2023-08-31T14:22:17;5.33;;;1.90;;
3347;SDS011;1687;49.540;8.574;2023-08-31T14:24:42;7.43;;;2.40;;
3347;SDS011;1687;49.540;8.574;2023-08-31T14:27:08;7.63;;;2.30;;
3347;SDS011;1687;49.540;8.574;2023-08-31T14:29:34;6.60;;;2.47;;
3347;SDS011;1687;49.540;8.574;2023-08-31T14:32:01;6.47;;;2.70;;
3347;SDS011;1687;49.540;8.574;2023-08-31T14:34:27;10.37;;;2.03;;
3347;SDS011;1687;49.540;8.574;2023-08-31T14:36:53;9.40;;;2.40;;
3347;SDS011;1687;49.540;8.574;2023-08-31T14:39:22;5.77;;;2.43;;
3347;SDS011;1687;49.540;8.574;2023-08-31T14:41:54;5.53;;;2.07;;
3347;SDS011;1687;49.540;8.574;2023-08-31T14:44:22;4.40;;;2.10;;
3347;SDS011;1687;49.540;8.574;2023-08-31T14:46:49;8.20;;;2.10;;
3347;SDS011;1687;49.540;8.574;2023-08-31T14:49:14;5.20;;;1.77;;
3347;SDS011;1687;49.540;8.574;2023-08-31T14:51:40;5.20;;;2.00;;
3347;SDS011;1687;49.540;8.574;2023-08-31T14:54:07;14.37;;;2.20;;
3347;SDS011;1687;49.540;8.574;2023-08-31T14:56:32;7.47;;;2.40;;
3347;SDS011;1687;49.540;8.574;2023-08-31T14:58:58;9.07;;;2.97;;
3347;SDS011;1687;49.540;8.574;2023-08-31T15:01:24;3.83;;;2.13;;
3347;SDS011;1687;49.540;8.574;2023-08-31T15:03:50;5.40;;;2.50;;
3347;SDS011;1687;49.540;8.574;2023-08-31T15:06:16;7.17;;;2.53;;
3347;SDS011;1687;49.540;8.574;2023-08-31T15:08:42;4.67;;;1.63;;
3347;SDS011;1687;49.540;8.574;2023-08-31T15:11:08;5.23;;;2.57;;
3347;SDS011;1687;49.540;8.574;2023-08-31T15:13:34;5.07;;;2.30;;
3347;SDS011;1687;49.540;8.574;2023-08-31T15:16:00;2.77;;;1.90;;
3347;SDS011;1687;49.540;8.574;2023-08-31T15:18:27;5.40;;;2.73;;
3347;SDS011;1687;49.540;8.574;2023-08-31T15:20:53;5.60;;;2.60;;
3347;SDS011;1687;49.540;8.574;2023-08-31T15:23:19;8.53;;;2.07;;
3347;SDS011;1687;49.540;8.574;2023-08-31T15:25:45;7.30;;;2.30;;
3347;SDS011;1687;49.540;8.574;2023-08-31T15:28:10;5.13;;;2.60;;